Аэропорт: Храброво. Калининград

ICAO: UMKK

METAR:
2022-01-28 08:00:00
UMKK 280800Z 33011G18MPS 9000 -SHRA SCT010 BKN018CB 03/01 Q1002 R24/290195 NOSIG RMK QFE751/1001
METAR:
2022-01-28 04:52:00
TAF UMKK 280452Z 2806/2906 32012G19MPS 6000 -SHRA SCT010 BKN015CB TEMPO 2806/2818 34015G23MPS 1800 SHRAGS BKN004 BKN012CB FM281800 33010G17MPS 9999 SCT016 BECMG 2823/2901 27005G10MPS